sensor_id;sensor_type;location;lat;lon;timestamp;P1;durP1;ratioP1;P2;durP2;ratioP2
2824;SDS011;1420;51.324;12.344;2022-08-16T00:01:27;61.44;;;55.62;;
2824;SDS011;1420;51.324;12.344;2022-08-16T00:03:54;78.88;;;71.62;;
2824;SDS011;1420;51.324;12.344;2022-08-16T00:06:21;82.94;;;75.40;;
2824;SDS011;1420;51.324;12.344;2022-08-16T00:08:49;61.14;;;56.04;;
2824;SDS011;1420;51.324;12.344;2022-08-16T00:11:16;83.42;;;76.02;;
2824;SDS011;1420;51.324;12.344;2022-08-16T00:13:44;65.82;;;60.30;;
2824;SDS011;1420;51.324;12.344;2022-08-16T00:16:12;79.56;;;72.32;;
2824;SDS011;1420;51.324;12.344;2022-08-16T00:18:40;90.46;;;82.62;;
2824;SDS011;1420;51.324;12.344;2022-08-16T00:21:08;60.68;;;54.36;;
2824;SDS011;1420;51.324;12.344;2022-08-16T00:23:35;64.16;;;58.28;;
2824;SDS011;1420;51.324;12.344;2022-08-16T00:26:02;67.94;;;62.46;;
2824;SDS011;1420;51.324;12.344;2022-08-16T00:28:29;59.38;;;53.54;;
2824;SDS011;1420;51.324;12.344;2022-08-16T00:30:57;71.02;;;64.74;;
2824;SDS011;1420;51.324;12.344;2022-08-16T00:33:24;96.22;;;87.80;;
2824;SDS011;1420;51.324;12.344;2022-08-16T00:35:51;53.48;;;49.40;;
2824;SDS011;1420;51.324;12.344;2022-08-16T00:38:18;59.56;;;54.50;;
2824;SDS011;1420;51.324;12.344;2022-08-16T00:40:48;68.98;;;62.90;;
2824;SDS011;1420;51.324;12.344;2022-08-16T00:43:15;82.26;;;74.68;;
2824;SDS011;1420;51.324;12.344;2022-08-16T00:45:47;76.48;;;70.28;;
2824;SDS011;1420;51.324;12.344;2022-08-16T00:48:30;76.84;;;70.70;;
2824;SDS011;1420;51.324;12.344;2022-08-16T00:50:59;78.40;;;71.98;;
2824;SDS011;1420;51.324;12.344;2022-08-16T00:53:26;85.72;;;79.02;;
2824;SDS011;1420;51.324;12.344;2022-08-16T00:55:55;99.40;;;90.96;;
2824;SDS011;1420;51.324;12.344;2022-08-16T00:58:23;114.04;;;105.50;;
2824;SDS011;1420;51.324;12.344;2022-08-16T01:00:49;86.16;;;79.48;;
2824;SDS011;1420;51.324;12.344;2022-08-16T01:03:17;88.54;;;81.02;;
2824;SDS011;1420;51.324;12.344;2022-08-16T01:05:44;63.20;;;58.34;;
2824;SDS011;1420;51.324;12.344;2022-08-16T01:08:11;67.30;;;61.28;;
2824;SDS011;1420;51.324;12.344;2022-08-16T01:10:38;80.80;;;74.46;;
2824;SDS011;1420;51.324;12.344;2022-08-16T01:13:07;91.02;;;83.58;;
2824;SDS011;1420;51.324;12.344;2022-08-16T01:15:38;92.22;;;84.18;;
2824;SDS011;1420;51.324;12.344;2022-08-16T01:18:05;72.64;;;66.38;;
2824;SDS011;1420;51.324;12.344;2022-08-16T01:20:33;89.26;;;82.56;;
2824;SDS011;1420;51.324;12.344;2022-08-16T01:23:02;88.38;;;80.62;;
2824;SDS011;1420;51.324;12.344;2022-08-16T01:25:37;93.58;;;86.24;;
2824;SDS011;1420;51.324;12.344;2022-08-16T01:28:06;111.48;;;102.68;;
2824;SDS011;1420;51.324;12.344;2022-08-16T01:30:35;79.78;;;71.58;;
2824;SDS011;1420;51.324;12.344;2022-08-16T01:33:02;96.16;;;88.08;;
2824;SDS011;1420;51.324;12.344;2022-08-16T01:35:29;92.24;;;84.30;;
2824;SDS011;1420;51.324;12.344;2022-08-16T01:37:56;96.44;;;88.86;;
2824;SDS011;1420;51.324;12.344;2022-08-16T01:40:25;73.42;;;66.48;;
2824;SDS011;1420;51.324;12.344;2022-08-16T01:42:50;80.60;;;74.52;;
2824;SDS011;1420;51.324;12.344;2022-08-16T01:45:17;103.42;;;95.32;;
2824;SDS011;1420;51.324;12.344;2022-08-16T01:47:45;90.90;;;84.38;;
2824;SDS011;1420;51.324;12.344;2022-08-16T01:50:12;115.48;;;106.92;;
2824;SDS011;1420;51.324;12.344;2022-08-16T01:52:39;98.14;;;89.74;;
2824;SDS011;1420;51.324;12.344;2022-08-16T01:55:06;105.48;;;97.40;;
2824;SDS011;1420;51.324;12.344;2022-08-16T01:57:34;116.80;;;108.54;;
2824;SDS011;1420;51.324;12.344;2022-08-16T02:00:04;75.98;;;69.74;;
2824;SDS011;1420;51.324;12.344;2022-08-16T02:02:29;102.64;;;94.98;;
2824;SDS011;1420;51.324;12.344;2022-08-16T02:04:57;75.26;;;69.44;;
2824;SDS011;1420;51.324;12.344;2022-08-16T02:07:25;88.50;;;81.48;;
2824;SDS011;1420;51.324;12.344;2022-08-16T02:09:53;66.02;;;59.90;;
2824;SDS011;1420;51.324;12.344;2022-08-16T02:12:20;60.10;;;55.04;;
2824;SDS011;1420;51.324;12.344;2022-08-16T02:14:47;45.06;;;40.90;;
2824;SDS011;1420;51.324;12.344;2022-08-16T02:17:14;55.26;;;50.24;;
2824;SDS011;1420;51.324;12.344;2022-08-16T02:19:42;56.58;;;51.52;;
2824;SDS011;1420;51.324;12.344;2022-08-16T02:22:10;58.06;;;53.06;;
2824;SDS011;1420;51.324;12.344;2022-08-16T02:24:36;47.10;;;42.54;;
2824;SDS011;1420;51.324;12.344;2022-08-16T02:27:03;54.24;;;49.64;;
2824;SDS011;1420;51.324;12.344;2022-08-16T02:29:31;55.60;;;50.40;;
2824;SDS011;1420;51.324;12.344;2022-08-16T02:31:59;56.06;;;51.52;;
2824;SDS011;1420;51.324;12.344;2022-08-16T02:34:27;59.02;;;47.38;;
2824;SDS011;1420;51.324;12.344;2022-08-16T02:36:54;57.88;;;52.06;;
2824;SDS011;1420;51.324;12.344;2022-08-16T02:39:22;37.94;;;34.60;;
2824;SDS011;1420;51.324;12.344;2022-08-16T02:41:49;35.02;;;31.66;;
2824;SDS011;1420;51.324;12.344;2022-08-16T02:44:16;53.68;;;49.34;;
2824;SDS011;1420;51.324;12.344;2022-08-16T02:46:44;47.50;;;43.66;;
2824;SDS011;1420;51.324;12.344;2022-08-16T02:49:11;51.02;;;46.50;;
2824;SDS011;1420;51.324;12.344;2022-08-16T02:51:38;48.92;;;44.54;;
2824;SDS011;1420;51.324;12.344;2022-08-16T02:54:05;60.46;;;55.32;;
2824;SDS011;1420;51.324;12.344;2022-08-16T02:56:32;39.22;;;34.90;;
2824;SDS011;1420;51.324;12.344;2022-08-16T02:59:00;42.62;;;38.98;;
2824;SDS011;1420;51.324;12.344;2022-08-16T03:01:28;45.54;;;41.44;;
2824;SDS011;1420;51.324;12.344;2022-08-16T03:03:55;44.16;;;39.42;;
2824;SDS011;1420;51.324;12.344;2022-08-16T03:06:23;59.66;;;52.52;;
2824;SDS011;1420;51.324;12.344;2022-08-16T03:08:52;55.98;;;51.30;;
2824;SDS011;1420;51.324;12.344;2022-08-16T03:11:19;48.78;;;44.40;;
2824;SDS011;1420;51.324;12.344;2022-08-16T03:13:47;67.70;;;62.80;;
2824;SDS011;1420;51.324;12.344;2022-08-16T03:16:14;59.48;;;55.14;;
2824;SDS011;1420;51.324;12.344;2022-08-16T03:18:41;86.68;;;80.10;;
2824;SDS011;1420;51.324;12.344;2022-08-16T03:21:08;76.74;;;70.82;;
2824;SDS011;1420;51.324;12.344;2022-08-16T03:23:35;82.86;;;76.04;;
2824;SDS011;1420;51.324;12.344;2022-08-16T03:26:03;108.10;;;99.32;;
2824;SDS011;1420;51.324;12.344;2022-08-16T03:28:30;96.42;;;89.88;;
2824;SDS011;1420;51.324;12.344;2022-08-16T03:30:58;87.50;;;81.50;;
2824;SDS011;1420;51.324;12.344;2022-08-16T03:33:26;99.84;;;92.50;;
2824;SDS011;1420;51.324;12.344;2022-08-16T03:35:53;72.66;;;66.64;;
2824;SDS011;1420;51.324;12.344;2022-08-16T03:38:20;91.26;;;83.96;;
2824;SDS011;1420;51.324;12.344;2022-08-16T03:40:47;99.12;;;91.80;;
2824;SDS011;1420;51.324;12.344;2022-08-16T03:43:14;57.70;;;52.52;;
2824;SDS011;1420;51.324;12.344;2022-08-16T03:45:42;82.58;;;75.62;;
2824;SDS011;1420;51.324;12.344;2022-08-16T03:48:09;77.30;;;70.44;;
2824;SDS011;1420;51.324;12.344;2022-08-16T03:50:36;82.60;;;76.54;;
2824;SDS011;1420;51.324;12.344;2022-08-16T03:53:04;67.34;;;61.68;;
2824;SDS011;1420;51.324;12.344;2022-08-16T03:55:32;57.70;;;52.66;;
2824;SDS011;1420;51.324;12.344;2022-08-16T03:58:00;52.74;;;47.50;;
2824;SDS011;1420;51.324;12.344;2022-08-16T04:00:29;39.58;;;35.92;;
2824;SDS011;1420;51.324;12.344;2022-08-16T04:02:57;70.90;;;63.70;;
2824;SDS011;1420;51.324;12.344;2022-08-16T04:05:23;58.86;;;54.38;;
2824;SDS011;1420;51.324;12.344;2022-08-16T04:07:50;47.28;;;43.04;;
2824;SDS011;1420;51.324;12.344;2022-08-16T04:10:18;54.80;;;49.54;;
2824;SDS011;1420;51.324;12.344;2022-08-16T04:12:45;44.76;;;40.84;;
2824;SDS011;1420;51.324;12.344;2022-08-16T04:15:14;51.10;;;46.62;;
2824;SDS011;1420;51.324;12.344;2022-08-16T04:17:40;72.76;;;66.40;;
2824;SDS011;1420;51.324;12.344;2022-08-16T04:20:08;49.00;;;44.96;;
2824;SDS011;1420;51.324;12.344;2022-08-16T04:22:35;61.20;;;55.94;;
2824;SDS011;1420;51.324;12.344;2022-08-16T04:25:03;46.84;;;42.48;;
2824;SDS011;1420;51.324;12.344;2022-08-16T04:27:31;55.88;;;32.72;;
2824;SDS011;1420;51.324;12.344;2022-08-16T04:29:58;40.30;;;36.62;;
2824;SDS011;1420;51.324;12.344;2022-08-16T04:32:25;42.72;;;36.62;;
2824;SDS011;1420;51.324;12.344;2022-08-16T04:34:52;27.30;;;24.64;;
2824;SDS011;1420;51.324;12.344;2022-08-16T04:37:19;27.54;;;24.56;;
2824;SDS011;1420;51.324;12.344;2022-08-16T04:39:47;40.14;;;36.18;;
2824;SDS011;1420;51.324;12.344;2022-08-16T04:42:16;44.64;;;40.86;;
2824;SDS011;1420;51.324;12.344;2022-08-16T04:44:44;33.68;;;30.42;;
2824;SDS011;1420;51.324;12.344;2022-08-16T04:47:11;29.82;;;26.76;;
2824;SDS011;1420;51.324;12.344;2022-08-16T04:49:38;32.44;;;29.06;;
2824;SDS011;1420;51.324;12.344;2022-08-16T04:52:06;27.54;;;25.06;;
2824;SDS011;1420;51.324;12.344;2022-08-16T04:54:33;32.82;;;29.62;;
2824;SDS011;1420;51.324;12.344;2022-08-16T04:57:00;33.06;;;29.84;;
2824;SDS011;1420;51.324;12.344;2022-08-16T04:59:27;25.28;;;22.68;;
2824;SDS011;1420;51.324;12.344;2022-08-16T05:01:54;51.14;;;46.14;;
2824;SDS011;1420;51.324;12.344;2022-08-16T05:04:22;27.34;;;24.38;;
2824;SDS011;1420;51.324;12.344;2022-08-16T05:06:50;23.84;;;21.54;;
2824;SDS011;1420;51.324;12.344;2022-08-16T05:09:18;24.14;;;21.64;;
2824;SDS011;1420;51.324;12.344;2022-08-16T05:11:46;30.82;;;27.60;;
2824;SDS011;1420;51.324;12.344;2022-08-16T05:14:14;25.34;;;22.90;;
2824;SDS011;1420;51.324;12.344;2022-08-16T05:16:42;28.30;;;25.36;;
2824;SDS011;1420;51.324;12.344;2022-08-16T05:19:09;26.92;;;22.46;;
2824;SDS011;1420;51.324;12.344;2022-08-16T05:21:37;21.98;;;17.64;;
2824;SDS011;1420;51.324;12.344;2022-08-16T05:24:05;21.70;;;16.98;;
2824;SDS011;1420;51.324;12.344;2022-08-16T05:26:33;19.70;;;16.14;;
2824;SDS011;1420;51.324;12.344;2022-08-16T05:29:02;25.66;;;21.90;;
2824;SDS011;1420;51.324;12.344;2022-08-16T05:31:29;19.34;;;15.72;;
2824;SDS011;1420;51.324;12.344;2022-08-16T05:33:58;30.60;;;26.22;;
2824;SDS011;1420;51.324;12.344;2022-08-16T05:36:26;17.70;;;15.40;;
2824;SDS011;1420;51.324;12.344;2022-08-16T05:38:53;16.86;;;12.48;;
2824;SDS011;1420;51.324;12.344;2022-08-16T05:41:21;23.76;;;21.46;;
2824;SDS011;1420;51.324;12.344;2022-08-16T05:43:49;20.30;;;16.46;;
2824;SDS011;1420;51.324;12.344;2022-08-16T05:46:17;16.22;;;11.24;;
2824;SDS011;1420;51.324;12.344;2022-08-16T05:48:45;15.26;;;10.74;;
2824;SDS011;1420;51.324;12.344;2022-08-16T05:51:12;14.98;;;9.18;;
2824;SDS011;1420;51.324;12.344;2022-08-16T05:53:39;14.98;;;12.12;;
2824;SDS011;1420;51.324;12.344;2022-08-16T05:56:06;17.66;;;12.00;;
2824;SDS011;1420;51.324;12.344;2022-08-16T05:58:33;13.06;;;7.88;;
2824;SDS011;1420;51.324;12.344;2022-08-16T06:01:00;13.14;;;9.12;;
2824;SDS011;1420;51.324;12.344;2022-08-16T06:03:28;13.92;;;9.98;;
2824;SDS011;1420;51.324;12.344;2022-08-16T06:05:55;12.26;;;7.78;;
2824;SDS011;1420;51.324;12.344;2022-08-16T06:08:22;11.96;;;6.82;;
2824;SDS011;1420;51.324;12.344;2022-08-16T06:10:51;12.32;;;6.42;;
2824;SDS011;1420;51.324;12.344;2022-08-16T06:13:18;15.68;;;7.46;;
2824;SDS011;1420;51.324;12.344;2022-08-16T06:15:46;11.70;;;6.60;;
2824;SDS011;1420;51.324;12.344;2022-08-16T06:18:14;11.10;;;5.88;;
2824;SDS011;1420;51.324;12.344;2022-08-16T06:20:42;12.50;;;6.16;;
2824;SDS011;1420;51.324;12.344;2022-08-16T06:23:10;13.34;;;6.58;;
2824;SDS011;1420;51.324;12.344;2022-08-16T06:25:38;11.62;;;5.42;;
2824;SDS011;1420;51.324;12.344;2022-08-16T06:28:07;13.02;;;7.70;;
2824;SDS011;1420;51.324;12.344;2022-08-16T06:30:32;13.08;;;7.00;;
2824;SDS011;1420;51.324;12.344;2022-08-16T06:33:00;12.18;;;7.30;;
2824;SDS011;1420;51.324;12.344;2022-08-16T06:35:28;12.66;;;6.80;;
2824;SDS011;1420;51.324;12.344;2022-08-16T06:37:56;13.68;;;6.46;;
2824;SDS011;1420;51.324;12.344;2022-08-16T06:40:23;13.46;;;6.78;;
2824;SDS011;1420;51.324;12.344;2022-08-16T06:42:51;12.42;;;6.58;;
2824;SDS011;1420;51.324;12.344;2022-08-16T06:45:19;12.96;;;7.44;;
2824;SDS011;1420;51.324;12.344;2022-08-16T06:47:47;12.14;;;6.44;;
2824;SDS011;1420;51.324;12.344;2022-08-16T06:50:14;12.42;;;8.24;;
2824;SDS011;1420;51.324;12.344;2022-08-16T06:52:41;12.70;;;7.80;;
2824;SDS011;1420;51.324;12.344;2022-08-16T06:55:09;12.26;;;7.36;;
2824;SDS011;1420;51.324;12.344;2022-08-16T06:57:36;13.36;;;9.78;;
2824;SDS011;1420;51.324;12.344;2022-08-16T07:00:04;14.26;;;10.00;;
2824;SDS011;1420;51.324;12.344;2022-08-16T07:02:39;13.52;;;7.14;;
2824;SDS011;1420;51.324;12.344;2022-08-16T07:05:06;13.14;;;8.54;;
2824;SDS011;1420;51.324;12.344;2022-08-16T07:07:33;12.40;;;6.96;;
2824;SDS011;1420;51.324;12.344;2022-08-16T07:10:01;11.68;;;6.98;;
2824;SDS011;1420;51.324;12.344;2022-08-16T07:12:29;14.14;;;4.96;;
2824;SDS011;1420;51.324;12.344;2022-08-16T07:14:57;12.70;;;6.24;;
2824;SDS011;1420;51.324;12.344;2022-08-16T07:17:25;13.88;;;9.26;;
2824;SDS011;1420;51.324;12.344;2022-08-16T07:19:53;12.88;;;8.26;;
2824;SDS011;1420;51.324;12.344;2022-08-16T07:22:20;13.70;;;10.18;;
2824;SDS011;1420;51.324;12.344;2022-08-16T07:24:48;14.84;;;8.34;;
2824;SDS011;1420;51.324;12.344;2022-08-16T07:27:15;14.60;;;10.36;;
2824;SDS011;1420;51.324;12.344;2022-08-16T07:29:43;11.78;;;6.00;;
2824;SDS011;1420;51.324;12.344;2022-08-16T07:32:11;10.20;;;4.26;;
2824;SDS011;1420;51.324;12.344;2022-08-16T07:34:39;11.08;;;4.24;;
2824;SDS011;1420;51.324;12.344;2022-08-16T07:37:08;11.60;;;5.80;;
2824;SDS011;1420;51.324;12.344;2022-08-16T07:39:34;11.38;;;5.34;;
2824;SDS011;1420;51.324;12.344;2022-08-16T07:42:01;11.20;;;4.42;;
2824;SDS011;1420;51.324;12.344;2022-08-16T07:44:29;11.32;;;4.10;;
2824;SDS011;1420;51.324;12.344;2022-08-16T07:46:56;10.82;;;4.70;;
2824;SDS011;1420;51.324;12.344;2022-08-16T07:49:23;12.60;;;6.82;;
2824;SDS011;1420;51.324;12.344;2022-08-16T07:51:51;13.52;;;5.50;;
2824;SDS011;1420;51.324;12.344;2022-08-16T07:54:18;10.42;;;4.10;;
2824;SDS011;1420;51.324;12.344;2022-08-16T07:56:45;10.88;;;4.26;;
2824;SDS011;1420;51.324;12.344;2022-08-16T07:59:12;11.26;;;4.18;;
2824;SDS011;1420;51.324;12.344;2022-08-16T08:01:40;10.56;;;4.26;;
2824;SDS011;1420;51.324;12.344;2022-08-16T08:04:07;11.78;;;5.18;;
2824;SDS011;1420;51.324;12.344;2022-08-16T08:06:35;12.42;;;5.18;;
2824;SDS011;1420;51.324;12.344;2022-08-16T08:09:02;10.98;;;4.86;;
2824;SDS011;1420;51.324;12.344;2022-08-16T08:11:30;11.36;;;4.64;;
2824;SDS011;1420;51.324;12.344;2022-08-16T08:13:58;11.90;;;4.40;;
2824;SDS011;1420;51.324;12.344;2022-08-16T08:16:26;11.32;;;4.62;;
2824;SDS011;1420;51.324;12.344;2022-08-16T08:18:54;10.38;;;4.94;;
2824;SDS011;1420;51.324;12.344;2022-08-16T08:21:23;9.96;;;4.48;;
2824;SDS011;1420;51.324;12.344;2022-08-16T08:23:50;10.32;;;4.38;;
2824;SDS011;1420;51.324;12.344;2022-08-16T08:26:18;11.16;;;4.76;;
2824;SDS011;1420;51.324;12.344;2022-08-16T08:28:46;10.26;;;4.44;;
2824;SDS011;1420;51.324;12.344;2022-08-16T08:31:14;10.06;;;4.36;;
2824;SDS011;1420;51.324;12.344;2022-08-16T08:33:42;13.18;;;5.58;;
2824;SDS011;1420;51.324;12.344;2022-08-16T08:36:12;10.86;;;4.68;;
2824;SDS011;1420;51.324;12.344;2022-08-16T08:38:42;11.52;;;4.92;;
2824;SDS011;1420;51.324;12.344;2022-08-16T08:41:09;11.92;;;4.72;;
2824;SDS011;1420;51.324;12.344;2022-08-16T08:43:36;11.34;;;4.94;;
2824;SDS011;1420;51.324;12.344;2022-08-16T08:46:03;11.00;;;5.42;;
2824;SDS011;1420;51.324;12.344;2022-08-16T08:48:31;10.98;;;4.52;;
2824;SDS011;1420;51.324;12.344;2022-08-16T08:50:59;10.76;;;4.50;;
2824;SDS011;1420;51.324;12.344;2022-08-16T08:53:27;10.66;;;4.22;;
2824;SDS011;1420;51.324;12.344;2022-08-16T08:55:54;11.46;;;5.02;;
2824;SDS011;1420;51.324;12.344;2022-08-16T08:58:25;11.94;;;5.02;;
2824;SDS011;1420;51.324;12.344;2022-08-16T09:00:53;13.12;;;6.62;;
2824;SDS011;1420;51.324;12.344;2022-08-16T09:03:21;11.04;;;4.54;;
2824;SDS011;1420;51.324;12.344;2022-08-16T09:05:49;10.88;;;4.78;;
2824;SDS011;1420;51.324;12.344;2022-08-16T09:08:17;13.20;;;4.60;;
2824;SDS011;1420;51.324;12.344;2022-08-16T09:10:44;9.12;;;3.30;;
2824;SDS011;1420;51.324;12.344;2022-08-16T09:13:11;10.02;;;3.38;;
2824;SDS011;1420;51.324;12.344;2022-08-16T09:15:38;10.88;;;4.26;;
2824;SDS011;1420;51.324;12.344;2022-08-16T09:18:06;11.16;;;4.66;;
2824;SDS011;1420;51.324;12.344;2022-08-16T09:20:33;12.34;;;5.72;;
2824;SDS011;1420;51.324;12.344;2022-08-16T09:23:00;10.44;;;3.98;;
2824;SDS011;1420;51.324;12.344;2022-08-16T09:25:27;9.86;;;3.90;;
2824;SDS011;1420;51.324;12.344;2022-08-16T09:27:54;10.56;;;3.70;;
2824;SDS011;1420;51.324;12.344;2022-08-16T09:30:22;9.86;;;3.70;;
2824;SDS011;1420;51.324;12.344;2022-08-16T09:32:49;9.06;;;3.30;;
2824;SDS011;1420;51.324;12.344;2022-08-16T09:35:16;9.70;;;3.26;;
2824;SDS011;1420;51.324;12.344;2022-08-16T09:37:43;9.14;;;3.12;;
2824;SDS011;1420;51.324;12.344;2022-08-16T09:40:10;10.52;;;3.36;;
2824;SDS011;1420;51.324;12.344;2022-08-16T09:42:38;11.54;;;4.12;;
2824;SDS011;1420;51.324;12.344;2022-08-16T09:45:06;8.96;;;3.44;;
2824;SDS011;1420;51.324;12.344;2022-08-16T09:47:34;9.48;;;3.62;;
2824;SDS011;1420;51.324;12.344;2022-08-16T09:50:00;11.54;;;5.26;;
2824;SDS011;1420;51.324;12.344;2022-08-16T09:52:28;10.18;;;4.64;;
2824;SDS011;1420;51.324;12.344;2022-08-16T09:54:56;10.62;;;3.72;;
2824;SDS011;1420;51.324;12.344;2022-08-16T09:57:24;10.68;;;3.88;;
2824;SDS011;1420;51.324;12.344;2022-08-16T09:59:52;10.42;;;3.78;;
2824;SDS011;1420;51.324;12.344;2022-08-16T10:02:20;10.24;;;4.32;;
2824;SDS011;1420;51.324;12.344;2022-08-16T10:04:48;9.40;;;2.46;;
2824;SDS011;1420;51.324;12.344;2022-08-16T10:07:16;10.00;;;3.30;;
2824;SDS011;1420;51.324;12.344;2022-08-16T10:09:44;11.50;;;4.90;;
2824;SDS011;1420;51.324;12.344;2022-08-16T10:12:12;10.80;;;3.86;;
2824;SDS011;1420;51.324;12.344;2022-08-16T10:14:45;11.20;;;4.58;;
2824;SDS011;1420;51.324;12.344;2022-08-16T10:17:12;10.28;;;4.32;;
2824;SDS011;1420;51.324;12.344;2022-08-16T10:19:39;11.36;;;4.18;;
2824;SDS011;1420;51.324;12.344;2022-08-16T10:22:06;10.46;;;3.62;;
2824;SDS011;1420;51.324;12.344;2022-08-16T10:24:34;10.00;;;4.44;;
2824;SDS011;1420;51.324;12.344;2022-08-16T10:27:01;10.32;;;3.40;;
2824;SDS011;1420;51.324;12.344;2022-08-16T10:29:28;16.34;;;7.40;;
2824;SDS011;1420;51.324;12.344;2022-08-16T10:31:56;12.06;;;4.48;;
2824;SDS011;1420;51.324;12.344;2022-08-16T10:34:24;10.70;;;3.84;;
2824;SDS011;1420;51.324;12.344;2022-08-16T10:36:52;10.86;;;3.60;;
2824;SDS011;1420;51.324;12.344;2022-08-16T10:39:21;11.28;;;3.96;;
2824;SDS011;1420;51.324;12.344;2022-08-16T10:41:49;12.68;;;4.22;;
2824;SDS011;1420;51.324;12.344;2022-08-16T10:44:17;11.54;;;3.86;;
2824;SDS011;1420;51.324;12.344;2022-08-16T10:46:44;10.90;;;2.98;;
2824;SDS011;1420;51.324;12.344;2022-08-16T10:49:11;11.68;;;3.10;;
2824;SDS011;1420;51.324;12.344;2022-08-16T10:51:38;10.74;;;3.52;;
2824;SDS011;1420;51.324;12.344;2022-08-16T10:54:05;10.56;;;3.18;;
2824;SDS011;1420;51.324;12.344;2022-08-16T10:56:33;9.40;;;2.70;;
2824;SDS011;1420;51.324;12.344;2022-08-16T10:59:00;11.38;;;3.58;;
2824;SDS011;1420;51.324;12.344;2022-08-16T11:01:27;12.22;;;4.20;;
2824;SDS011;1420;51.324;12.344;2022-08-16T11:03:54;9.68;;;3.06;;
2824;SDS011;1420;51.324;12.344;2022-08-16T11:06:22;9.86;;;2.84;;
2824;SDS011;1420;51.324;12.344;2022-08-16T11:08:49;10.26;;;2.66;;
2824;SDS011;1420;51.324;12.344;2022-08-16T11:11:16;16.36;;;4.18;;
2824;SDS011;1420;51.324;12.344;2022-08-16T11:13:43;11.28;;;3.30;;
2824;SDS011;1420;51.324;12.344;2022-08-16T11:16:10;12.38;;;4.12;;
2824;SDS011;1420;51.324;12.344;2022-08-16T11:18:37;11.68;;;3.76;;
2824;SDS011;1420;51.324;12.344;2022-08-16T11:21:05;11.60;;;2.98;;
2824;SDS011;1420;51.324;12.344;2022-08-16T11:23:32;12.90;;;3.04;;
2824;SDS011;1420;51.324;12.344;2022-08-16T11:25:59;10.46;;;3.12;;
2824;SDS011;1420;51.324;12.344;2022-08-16T11:28:27;12.24;;;3.80;;
2824;SDS011;1420;51.324;12.344;2022-08-16T11:30:54;11.60;;;3.28;;
2824;SDS011;1420;51.324;12.344;2022-08-16T11:33:21;13.92;;;6.04;;
2824;SDS011;1420;51.324;12.344;2022-08-16T11:35:48;12.20;;;4.26;;
2824;SDS011;1420;51.324;12.344;2022-08-16T11:38:17;13.10;;;4.02;;
2824;SDS011;1420;51.324;12.344;2022-08-16T11:40:44;12.38;;;4.08;;
2824;SDS011;1420;51.324;12.344;2022-08-16T11:43:14;13.08;;;5.46;;
2824;SDS011;1420;51.324;12.344;2022-08-16T11:45:40;12.46;;;3.98;;
2824;SDS011;1420;51.324;12.344;2022-08-16T11:48:08;12.54;;;4.68;;
2824;SDS011;1420;51.324;12.344;2022-08-16T11:50:35;16.00;;;7.52;;
2824;SDS011;1420;51.324;12.344;2022-08-16T11:53:03;14.72;;;9.18;;
2824;SDS011;1420;51.324;12.344;2022-08-16T11:55:30;14.62;;;8.64;;
2824;SDS011;1420;51.324;12.344;2022-08-16T11:57:57;14.60;;;7.90;;
2824;SDS011;1420;51.324;12.344;2022-08-16T12:00:26;14.12;;;6.54;;
2824;SDS011;1420;51.324;12.344;2022-08-16T12:02:52;18.04;;;15.78;;
2824;SDS011;1420;51.324;12.344;2022-08-16T12:05:20;14.40;;;6.86;;
2824;SDS011;1420;51.324;12.344;2022-08-16T12:07:47;15.46;;;9.02;;
2824;SDS011;1420;51.324;12.344;2022-08-16T12:10:16;16.96;;;8.56;;
2824;SDS011;1420;51.324;12.344;2022-08-16T12:12:42;17.72;;;14.10;;
2824;SDS011;1420;51.324;12.344;2022-08-16T12:15:09;21.12;;;16.54;;
2824;SDS011;1420;51.324;12.344;2022-08-16T12:17:36;19.14;;;16.80;;
2824;SDS011;1420;51.324;12.344;2022-08-16T12:20:04;21.10;;;18.60;;
2824;SDS011;1420;51.324;12.344;2022-08-16T12:22:30;17.98;;;12.56;;
2824;SDS011;1420;51.324;12.344;2022-08-16T12:24:58;21.54;;;19.38;;
2824;SDS011;1420;51.324;12.344;2022-08-16T12:27:25;18.38;;;9.24;;
2824;SDS011;1420;51.324;12.344;2022-08-16T12:29:52;19.60;;;13.88;;
2824;SDS011;1420;51.324;12.344;2022-08-16T12:32:19;19.54;;;17.04;;
2824;SDS011;1420;51.324;12.344;2022-08-16T12:34:46;26.26;;;21.58;;
2824;SDS011;1420;51.324;12.344;2022-08-16T12:37:14;25.22;;;22.90;;
2824;SDS011;1420;51.324;12.344;2022-08-16T12:39:42;20.06;;;15.30;;
2824;SDS011;1420;51.324;12.344;2022-08-16T12:42:10;18.82;;;15.78;;
2824;SDS011;1420;51.324;12.344;2022-08-16T12:44:38;17.14;;;12.60;;
2824;SDS011;1420;51.324;12.344;2022-08-16T12:47:06;18.74;;;16.76;;
2824;SDS011;1420;51.324;12.344;2022-08-16T12:49:39;16.00;;;11.10;;
2824;SDS011;1420;51.324;12.344;2022-08-16T12:52:06;16.94;;;12.28;;
2824;SDS011;1420;51.324;12.344;2022-08-16T12:54:35;17.44;;;13.02;;
2824;SDS011;1420;51.324;12.344;2022-08-16T12:57:02;16.88;;;14.80;;
2824;SDS011;1420;51.324;12.344;2022-08-16T12:59:29;14.78;;;8.62;;
2824;SDS011;1420;51.324;12.344;2022-08-16T13:01:57;18.12;;;13.04;;
2824;SDS011;1420;51.324;12.344;2022-08-16T13:04:24;17.56;;;14.60;;
2824;SDS011;1420;51.324;12.344;2022-08-16T13:06:51;25.54;;;23.16;;
2824;SDS011;1420;51.324;12.344;2022-08-16T13:09:19;20.56;;;18.34;;
2824;SDS011;1420;51.324;12.344;2022-08-16T13:11:49;25.06;;;19.90;;
2824;SDS011;1420;51.324;12.344;2022-08-16T13:14:14;23.34;;;20.94;;
2824;SDS011;1420;51.324;12.344;2022-08-16T13:16:41;22.10;;;19.86;;
2824;SDS011;1420;51.324;12.344;2022-08-16T13:19:08;40.42;;;37.10;;
2824;SDS011;1420;51.324;12.344;2022-08-16T13:21:35;27.50;;;25.00;;
2824;SDS011;1420;51.324;12.344;2022-08-16T13:24:02;23.88;;;21.50;;
2824;SDS011;1420;51.324;12.344;2022-08-16T13:26:29;19.50;;;15.32;;
2824;SDS011;1420;51.324;12.344;2022-08-16T13:28:57;18.02;;;14.52;;
2824;SDS011;1420;51.324;12.344;2022-08-16T13:31:25;18.40;;;16.28;;
2824;SDS011;1420;51.324;12.344;2022-08-16T13:33:53;16.80;;;14.72;;
2824;SDS011;1420;51.324;12.344;2022-08-16T13:36:20;20.36;;;18.42;;
2824;SDS011;1420;51.324;12.344;2022-08-16T13:38:47;15.94;;;11.80;;
2824;SDS011;1420;51.324;12.344;2022-08-16T13:41:14;19.62;;;16.22;;
2824;SDS011;1420;51.324;12.344;2022-08-16T13:43:41;20.64;;;18.64;;
2824;SDS011;1420;51.324;12.344;2022-08-16T13:46:09;20.50;;;18.50;;
2824;SDS011;1420;51.324;12.344;2022-08-16T13:48:37;20.10;;;17.22;;
2824;SDS011;1420;51.324;12.344;2022-08-16T13:51:05;21.40;;;18.62;;
2824;SDS011;1420;51.324;12.344;2022-08-16T13:53:33;18.58;;;15.70;;
2824;SDS011;1420;51.324;12.344;2022-08-16T13:56:01;31.12;;;28.36;;
2824;SDS011;1420;51.324;12.344;2022-08-16T13:58:29;20.48;;;18.32;;
2824;SDS011;1420;51.324;12.344;2022-08-16T14:00:57;20.78;;;18.34;;
2824;SDS011;1420;51.324;12.344;2022-08-16T14:03:24;22.60;;;20.40;;
2824;SDS011;1420;51.324;12.344;2022-08-16T14:05:51;20.30;;;18.20;;
2824;SDS011;1420;51.324;12.344;2022-08-16T14:08:19;20.46;;;18.48;;
2824;SDS011;1420;51.324;12.344;2022-08-16T14:10:46;21.46;;;18.86;;
2824;SDS011;1420;51.324;12.344;2022-08-16T14:13:13;16.80;;;12.56;;
2824;SDS011;1420;51.324;12.344;2022-08-16T14:15:41;20.04;;;18.02;;
2824;SDS011;1420;51.324;12.344;2022-08-16T14:18:08;17.56;;;13.56;;
2824;SDS011;1420;51.324;12.344;2022-08-16T14:20:35;18.58;;;16.60;;
2824;SDS011;1420;51.324;12.344;2022-08-16T14:23:03;22.54;;;20.16;;
2824;SDS011;1420;51.324;12.344;2022-08-16T14:25:31;17.34;;;12.42;;
2824;SDS011;1420;51.324;12.344;2022-08-16T14:27:59;18.78;;;16.82;;
2824;SDS011;1420;51.324;12.344;2022-08-16T14:30:27;20.70;;;18.30;;
2824;SDS011;1420;51.324;12.344;2022-08-16T14:32:55;21.78;;;19.64;;
2824;SDS011;1420;51.324;12.344;2022-08-16T14:35:23;18.90;;;16.20;;
2824;SDS011;1420;51.324;12.344;2022-08-16T14:37:50;17.74;;;11.84;;
2824;SDS011;1420;51.324;12.344;2022-08-16T14:40:17;18.20;;;15.72;;
2824;SDS011;1420;51.324;12.344;2022-08-16T14:42:45;19.48;;;17.36;;